createdAt,value
2017-09-13T00:00:10.485Z,2.33
2017-09-13T00:02:37.996Z,2.73
2017-09-13T00:05:05.497Z,2.20
2017-09-13T00:07:32.984Z,2.80
2017-09-13T00:10:00.487Z,3.20
2017-09-13T00:12:28.069Z,2.47
2017-09-13T00:14:55.617Z,2.30
2017-09-13T00:17:23.166Z,2.27
2017-09-13T00:19:50.806Z,2.93
2017-09-13T00:22:18.298Z,2.20
2017-09-13T00:24:45.890Z,2.47
2017-09-13T00:27:13.376Z,2.20
2017-09-13T00:29:40.871Z,2.20
2017-09-13T00:32:08.378Z,2.30
2017-09-13T00:34:35.873Z,2.70
2017-09-13T00:37:03.377Z,2.37
2017-09-13T00:39:30.865Z,3.10
2017-09-13T00:41:58.374Z,3.17
2017-09-13T00:44:26.657Z,2.17
2017-09-13T00:46:54.202Z,2.30
2017-09-13T00:49:21.728Z,3.10
2017-09-13T00:51:50.005Z,2.30
2017-09-13T00:54:17.498Z,2.03
2017-09-13T00:56:45.002Z,2.70
2017-09-13T00:59:12.489Z,2.03
2017-09-13T01:01:40.766Z,2.13
2017-09-13T01:04:09.057Z,2.50
2017-09-13T01:06:36.601Z,2.70
2017-09-13T01:09:04.120Z,2.27
2017-09-13T01:11:32.406Z,2.00
2017-09-13T01:13:59.909Z,2.53
2017-09-13T01:16:28.902Z,2.93
2017-09-13T01:18:57.190Z,2.57
2017-09-13T01:21:24.690Z,2.37
2017-09-13T01:23:52.284Z,2.53
2017-09-13T01:26:19.774Z,2.20
2017-09-13T01:28:47.288Z,2.03
2017-09-13T01:31:14.789Z,2.30
2017-09-13T01:33:43.070Z,2.60
2017-09-13T01:36:10.737Z,2.60
2017-09-13T01:38:38.262Z,3.13
2017-09-13T01:41:05.802Z,2.93
2017-09-13T01:43:33.351Z,2.77
2017-09-13T01:46:00.852Z,2.87
2017-09-13T01:48:28.346Z,2.97
2017-09-13T01:50:55.849Z,2.87
2017-09-13T01:53:24.101Z,2.90
2017-09-13T01:55:52.461Z,2.20
2017-09-13T01:58:19.948Z,2.10
2017-09-13T02:00:47.502Z,3.13
2017-09-13T02:03:14.986Z,2.50
2017-09-13T02:05:43.254Z,2.17
2017-09-13T02:08:10.732Z,2.43
2017-09-13T02:10:38.248Z,2.47
2017-09-13T02:13:06.499Z,2.70
2017-09-13T02:15:33.986Z,2.03
2017-09-13T02:18:01.525Z,2.37
2017-09-13T02:20:29.009Z,2.53
2017-09-13T02:22:56.506Z,2.47
2017-09-13T02:25:23.998Z,2.70
2017-09-13T02:27:51.512Z,2.70
2017-09-13T02:30:19.050Z,3.50
2017-09-13T02:32:46.567Z,2.87
2017-09-13T02:35:14.825Z,2.70
2017-09-13T02:37:43.100Z,3.30
2017-09-13T02:40:10.589Z,2.50
2017-09-13T02:42:38.070Z,2.50
2017-09-13T02:45:06.341Z,2.60
2017-09-13T02:47:33.821Z,2.90
2017-09-13T02:50:01.323Z,4.23
2017-09-13T02:52:28.814Z,2.70
2017-09-13T02:54:57.093Z,2.53
2017-09-13T02:57:24.586Z,3.60
2017-09-13T02:59:52.089Z,2.60
2017-09-13T03:02:19.661Z,2.97
2017-09-13T03:04:47.179Z,3.07
2017-09-13T03:07:14.857Z,3.07
2017-09-13T03:09:42.377Z,3.00
2017-09-13T03:12:10.637Z,2.80
2017-09-13T03:14:38.921Z,2.83
2017-09-13T03:17:06.424Z,2.97
2017-09-13T03:19:33.909Z,2.63
2017-09-13T03:22:01.448Z,3.13
2017-09-13T03:24:28.937Z,3.23
2017-09-13T03:26:56.460Z,2.63
2017-09-13T03:29:23.951Z,2.57
2017-09-13T03:31:52.221Z,2.10
2017-09-13T03:34:20.472Z,2.50
2017-09-13T03:36:48.741Z,2.53
2017-09-13T03:39:16.229Z,2.30
2017-09-13T03:41:43.774Z,2.10
2017-09-13T03:44:11.288Z,2.20
2017-09-13T03:46:38.829Z,2.30
2017-09-13T03:49:06.328Z,1.53
2017-09-13T03:51:33.814Z,1.87
2017-09-13T03:54:01.317Z,1.57
2017-09-13T03:56:28.831Z,3.50
2017-09-13T03:58:56.332Z,1.50
2017-09-13T04:01:24.608Z,1.20
2017-09-13T04:03:52.105Z,1.67
2017-09-13T04:06:19.593Z,1.20
2017-09-13T04:08:47.136Z,1.17
2017-09-13T04:11:14.627Z,1.30
2017-09-13T04:13:42.145Z,1.30
2017-09-13T04:16:09.665Z,1.40
2017-09-13T04:18:37.148Z,1.10
2017-09-13T04:21:04.648Z,1.40
2017-09-13T04:23:32.132Z,1.30
2017-09-13T04:25:59.670Z,1.40
2017-09-13T04:28:27.153Z,1.13
2017-09-13T04:30:54.661Z,1.23
2017-09-13T04:33:22.143Z,1.10
2017-09-13T04:35:50.412Z,1.30
2017-09-13T04:38:18.660Z,1.40
2017-09-13T04:40:46.936Z,1.40
2017-09-13T04:43:15.209Z,1.40
2017-09-13T04:45:42.716Z,1.50
2017-09-13T04:48:10.209Z,1.07
2017-09-13T04:50:37.713Z,1.17
2017-09-13T04:53:05.223Z,1.27
2017-09-13T04:55:32.712Z,1.60
2017-09-13T04:58:00.987Z,1.13
2017-09-13T05:00:28.478Z,1.80
2017-09-13T05:02:55.976Z,0.90
2017-09-13T05:05:23.469Z,1.00
2017-09-13T05:07:50.964Z,1.17
2017-09-13T05:10:18.444Z,1.07
2017-09-13T05:12:45.948Z,1.03
2017-09-13T05:15:13.432Z,1.00
2017-09-13T05:17:40.942Z,0.97
2017-09-13T05:20:09.188Z,1.07
2017-09-13T05:22:37.469Z,1.03
2017-09-13T05:25:04.951Z,0.83
2017-09-13T05:27:32.435Z,0.87
2017-09-13T05:30:00.706Z,0.90
2017-09-13T05:32:28.961Z,0.83
2017-09-13T05:34:57.228Z,0.80
2017-09-13T05:37:25.553Z,0.80
2017-09-13T05:39:53.140Z,0.87
2017-09-13T05:42:21.392Z,0.90
2017-09-13T05:44:49.944Z,0.77
2017-09-13T05:47:18.222Z,0.90
2017-09-13T05:49:46.511Z,0.80
2017-09-13T05:52:14.009Z,0.80
2017-09-13T05:54:41.508Z,0.80
2017-09-13T05:57:09.283Z,0.80
2017-09-13T05:59:37.593Z,0.80
2017-09-13T06:02:05.136Z,0.70
2017-09-13T06:04:32.613Z,0.90
2017-09-13T06:07:00.114Z,0.90
2017-09-13T06:09:28.365Z,0.70
2017-09-13T06:11:56.633Z,0.87
2017-09-13T06:14:24.906Z,0.80
2017-09-13T06:16:52.401Z,1.03
2017-09-13T06:19:19.888Z,1.10
2017-09-13T06:21:48.148Z,0.80
2017-09-13T06:24:16.408Z,1.00
2017-09-13T06:26:44.755Z,0.90
2017-09-13T06:29:12.238Z,0.93
2017-09-13T06:31:39.803Z,1.07
2017-09-13T06:34:07.289Z,1.00
2017-09-13T06:36:34.772Z,1.27
2017-09-13T06:39:02.298Z,1.10
2017-09-13T06:41:29.790Z,1.10
2017-09-13T06:43:57.297Z,1.00
2017-09-13T06:46:24.785Z,1.30
2017-09-13T06:48:52.285Z,1.17
2017-09-13T06:51:19.768Z,1.53
2017-09-13T06:53:47.277Z,1.20
2017-09-13T06:56:14.768Z,1.13
2017-09-13T06:58:42.294Z,1.37
2017-09-13T07:01:09.781Z,2.03
2017-09-13T07:03:37.293Z,1.60
2017-09-13T07:06:04.793Z,1.70
2017-09-13T07:08:32.276Z,1.97
2017-09-13T07:10:59.885Z,1.97
2017-09-13T07:13:27.369Z,1.97
2017-09-13T07:15:54.874Z,2.37
2017-09-13T07:18:22.368Z,3.17
2017-09-13T07:20:49.962Z,1.80
2017-09-13T07:23:17.498Z,2.43
2017-09-13T07:25:45.061Z,2.80
2017-09-13T07:28:12.559Z,3.27
2017-09-13T07:30:40.061Z,3.87
2017-09-13T07:33:07.541Z,3.13
2017-09-13T07:35:35.819Z,2.57
2017-09-13T07:38:03.309Z,3.30
2017-09-13T07:40:30.822Z,2.93
2017-09-13T07:42:58.313Z,3.20
2017-09-13T07:45:25.799Z,3.70
2017-09-13T07:47:53.305Z,3.43
2017-09-13T07:50:20.788Z,4.40
2017-09-13T07:52:48.288Z,5.43
2017-09-13T07:55:15.780Z,4.73
2017-09-13T07:57:44.056Z,3.90
2017-09-13T08:00:12.313Z,4.67
2017-09-13T08:02:40.589Z,3.80
2017-09-13T08:05:08.081Z,4.53
2017-09-13T08:07:35.599Z,4.63
2017-09-13T08:10:03.121Z,4.57
2017-09-13T08:12:30.612Z,4.73
2017-09-13T08:14:58.211Z,4.23
2017-09-13T08:17:25.696Z,6.00
2017-09-13T08:19:53.293Z,5.40
2017-09-13T08:22:20.780Z,4.80
2017-09-13T08:24:48.376Z,4.90
2017-09-13T08:27:15.872Z,5.70
2017-09-13T08:29:43.378Z,4.37
2017-09-13T08:32:10.923Z,5.60
2017-09-13T08:34:38.429Z,4.00
2017-09-13T08:37:06.680Z,4.00
2017-09-13T08:39:34.192Z,4.10
2017-09-13T08:42:01.672Z,3.10
2017-09-13T08:44:29.156Z,4.30
2017-09-13T08:46:56.660Z,3.90
2017-09-13T08:49:24.149Z,3.27
2017-09-13T08:51:51.648Z,3.07
2017-09-13T08:54:19.158Z,2.53
2017-09-13T08:56:46.673Z,3.00
2017-09-13T08:59:14.176Z,3.77
2017-09-13T09:01:41.676Z,3.30
2017-09-13T09:04:09.156Z,2.77
2017-09-13T09:06:36.665Z,3.50
2017-09-13T09:09:04.213Z,4.57
2017-09-13T09:11:31.708Z,2.80
2017-09-13T09:13:59.972Z,2.97
2017-09-13T09:16:28.225Z,3.80
2017-09-13T09:18:56.497Z,3.40
2017-09-13T09:21:24.749Z,3.83
2017-09-13T09:23:53.021Z,4.00
2017-09-13T09:26:21.272Z,3.60
2017-09-13T09:28:49.586Z,3.97
2017-09-13T09:31:17.100Z,4.17
2017-09-13T09:33:44.650Z,3.87
2017-09-13T09:36:12.134Z,3.23
2017-09-13T09:38:39.732Z,3.00
2017-09-13T09:41:07.232Z,2.90
2017-09-13T09:43:34.750Z,3.10
2017-09-13T09:46:03.056Z,2.67
2017-09-13T09:48:30.573Z,3.10
2017-09-13T09:50:58.085Z,2.47
2017-09-13T09:53:25.583Z,2.40
2017-09-13T09:55:53.080Z,2.90
2017-09-13T09:58:21.323Z,2.20
2017-09-13T10:00:48.817Z,3.07
2017-09-13T10:03:16.305Z,3.23
2017-09-13T10:05:43.894Z,3.10
2017-09-13T10:08:11.385Z,3.47
2017-09-13T10:10:38.910Z,2.63
2017-09-13T10:13:06.400Z,2.80
2017-09-13T10:15:34.649Z,3.30
2017-09-13T10:18:02.156Z,2.87
2017-09-13T10:20:29.645Z,3.40
2017-09-13T10:22:57.922Z,2.63
2017-09-13T10:25:25.409Z,3.50
2017-09-13T10:27:52.904Z,3.10
2017-09-13T10:30:21.157Z,3.30
2017-09-13T10:32:49.428Z,2.60
2017-09-13T10:35:16.916Z,3.17
2017-09-13T10:37:44.407Z,2.50
2017-09-13T10:40:12.664Z,2.73
2017-09-13T10:42:40.908Z,3.33
2017-09-13T10:45:08.660Z,3.10
2017-09-13T10:47:36.921Z,3.80
2017-09-13T10:50:04.428Z,2.83
2017-09-13T10:52:32.008Z,2.80
2017-09-13T10:55:00.273Z,2.33
2017-09-13T10:57:27.836Z,2.97
2017-09-13T10:59:55.401Z,3.10
2017-09-13T11:02:22.976Z,2.80
2017-09-13T11:04:50.530Z,1.80
2017-09-13T11:07:18.782Z,2.60
2017-09-13T11:09:46.352Z,2.60
2017-09-13T11:12:14.608Z,2.00
2017-09-13T11:14:42.860Z,2.27
2017-09-13T11:17:11.141Z,2.30
2017-09-13T11:19:38.624Z,2.27
2017-09-13T11:22:06.228Z,2.60
2017-09-13T11:24:33.776Z,1.70
2017-09-13T11:27:01.285Z,2.03
2017-09-13T11:29:29.546Z,1.60
2017-09-13T11:31:57.052Z,2.30
2017-09-13T11:34:24.532Z,1.93
2017-09-13T11:36:52.040Z,2.03
2017-09-13T11:39:19.545Z,2.07
2017-09-13T11:41:47.048Z,2.07
2017-09-13T11:44:14.538Z,2.50
2017-09-13T11:46:42.053Z,2.30
2017-09-13T11:49:09.532Z,1.97
2017-09-13T11:51:37.016Z,2.60
2017-09-13T11:54:04.516Z,1.90
2017-09-13T11:56:32.008Z,2.60
2017-09-13T11:58:59.540Z,2.40
2017-09-13T12:01:27.035Z,2.40
2017-09-13T12:03:54.629Z,1.83
2017-09-13T12:06:22.112Z,1.90
2017-09-13T12:08:49.707Z,1.90
2017-09-13T12:11:17.205Z,2.50
2017-09-13T12:13:44.804Z,2.37
2017-09-13T12:16:12.453Z,1.80
2017-09-13T12:18:40.022Z,2.77
2017-09-13T12:21:07.547Z,2.60
2017-09-13T12:23:35.069Z,2.37
2017-09-13T12:26:03.316Z,2.37
2017-09-13T12:28:31.573Z,3.07
2017-09-13T12:30:59.072Z,2.20
2017-09-13T12:33:26.553Z,1.97
2017-09-13T12:35:54.044Z,2.20
2017-09-13T12:38:21.522Z,2.43
2017-09-13T12:40:49.025Z,2.30
2017-09-13T12:43:16.562Z,2.20
2017-09-13T12:45:44.083Z,2.67
2017-09-13T12:48:11.568Z,2.27
2017-09-13T12:50:39.149Z,3.47
2017-09-13T12:53:06.633Z,2.73
2017-09-13T12:55:34.232Z,2.33
2017-09-13T12:58:01.721Z,2.00
2017-09-13T13:00:29.323Z,1.97
2017-09-13T13:02:56.897Z,2.20
2017-09-13T13:05:24.417Z,1.93
2017-09-13T13:07:51.956Z,2.20
2017-09-13T13:10:19.502Z,2.80
2017-09-13T13:12:47.010Z,2.60
2017-09-13T13:15:14.502Z,2.77
2017-09-13T13:17:42.056Z,2.03
2017-09-13T13:20:09.540Z,2.70
2017-09-13T13:22:37.037Z,2.00
2017-09-13T13:25:04.518Z,1.80
2017-09-13T13:27:32.022Z,2.10
2017-09-13T13:29:59.521Z,1.90
2017-09-13T13:32:27.772Z,2.17
2017-09-13T13:34:56.066Z,1.43
2017-09-13T13:37:23.553Z,2.17
2017-09-13T13:39:51.064Z,2.27
2017-09-13T13:42:18.555Z,1.53
2017-09-13T13:44:46.072Z,1.53
2017-09-13T13:47:13.627Z,2.17
2017-09-13T13:49:41.144Z,1.53
2017-09-13T13:52:08.716Z,2.70
2017-09-13T13:54:36.210Z,2.40
2017-09-13T13:57:04.478Z,1.73
2017-09-13T13:59:32.731Z,1.60
2017-09-13T14:02:00.991Z,1.90
2017-09-13T14:04:29.273Z,1.90
2017-09-13T14:06:56.793Z,1.60
2017-09-13T14:09:25.040Z,1.60
2017-09-13T14:11:52.536Z,1.87
2017-09-13T14:14:20.022Z,1.57
2017-09-13T14:16:47.546Z,1.50
2017-09-13T14:19:15.241Z,1.53
2017-09-13T14:21:43.493Z,1.90
2017-09-13T14:24:11.757Z,2.27
2017-09-13T14:26:40.002Z,1.70
2017-09-13T14:29:07.507Z,2.00
2017-09-13T14:31:34.989Z,1.80
2017-09-13T14:34:02.581Z,1.50
2017-09-13T14:36:30.065Z,1.40
2017-09-13T14:38:57.669Z,1.73
2017-09-13T14:41:25.212Z,1.50
2017-09-13T14:43:52.788Z,1.30
2017-09-13T14:46:20.268Z,1.63
2017-09-13T14:48:47.744Z,1.47
2017-09-13T14:51:15.244Z,1.40
2017-09-13T14:53:42.725Z,1.33
2017-09-13T14:56:10.988Z,1.40
2017-09-13T14:58:38.541Z,1.40
2017-09-13T15:01:06.084Z,1.30
2017-09-13T15:03:33.568Z,1.23
2017-09-13T15:06:01.075Z,1.20
2017-09-13T15:08:28.613Z,1.40
2017-09-13T15:10:56.113Z,1.20
2017-09-13T15:13:23.593Z,1.30
2017-09-13T15:15:51.576Z,1.33
2017-09-13T15:18:19.098Z,1.50
2017-09-13T15:20:46.589Z,1.33
2017-09-13T15:23:14.105Z,1.10
2017-09-13T15:25:41.594Z,1.30
2017-09-13T15:28:09.868Z,1.40
2017-09-13T15:30:38.118Z,1.43
2017-09-13T15:33:05.720Z,1.37
2017-09-13T15:35:33.196Z,1.50
2017-09-13T15:38:01.460Z,1.60
2017-09-13T15:40:29.768Z,1.40
2017-09-13T15:42:57.273Z,1.40
2017-09-13T15:45:24.766Z,1.20
2017-09-13T15:47:52.290Z,1.50
2017-09-13T15:50:19.777Z,2.37
2017-09-13T15:52:47.271Z,1.30
2017-09-13T15:55:14.782Z,1.53
2017-09-13T15:57:43.033Z,2.23
2017-09-13T16:00:10.538Z,1.70
2017-09-13T16:02:38.076Z,1.80
2017-09-13T16:05:05.572Z,1.60
2017-09-13T16:07:33.820Z,1.77
2017-09-13T16:10:01.326Z,2.10
2017-09-13T16:12:28.814Z,1.43
2017-09-13T16:14:57.085Z,1.83
2017-09-13T16:17:25.341Z,2.60
2017-09-13T16:19:53.645Z,1.80
2017-09-13T16:22:21.125Z,2.70
2017-09-13T16:24:48.733Z,2.00
2017-09-13T16:27:16.222Z,1.63
2017-09-13T16:29:43.701Z,2.50
2017-09-13T16:32:11.214Z,2.57
2017-09-13T16:34:39.474Z,2.43
2017-09-13T16:37:07.758Z,2.30
2017-09-13T16:39:35.253Z,2.73
2017-09-13T16:42:02.765Z,2.10
2017-09-13T16:44:30.249Z,2.37
2017-09-13T16:46:57.925Z,2.30
2017-09-13T16:49:26.180Z,2.90
2017-09-13T16:51:54.449Z,3.60
2017-09-13T16:54:22.746Z,3.13
2017-09-13T16:56:50.253Z,3.20
2017-09-13T16:59:18.521Z,2.80
2017-09-13T17:01:46.091Z,3.10
2017-09-13T17:04:13.605Z,3.27
2017-09-13T17:06:41.089Z,3.13
2017-09-13T17:09:08.660Z,3.10
2017-09-13T17:11:36.176Z,3.37
2017-09-13T17:14:03.677Z,3.30
2017-09-13T17:16:31.165Z,3.27
2017-09-13T17:18:58.673Z,3.40
2017-09-13T17:21:26.160Z,3.40
2017-09-13T17:23:53.666Z,4.43
2017-09-13T17:26:21.979Z,2.87
2017-09-13T17:28:49.500Z,3.53
2017-09-13T17:31:16.997Z,3.13
2017-09-13T17:33:44.591Z,3.57
2017-09-13T17:36:12.100Z,3.13
2017-09-13T17:38:40.359Z,2.70
2017-09-13T17:41:08.733Z,3.40
2017-09-13T17:43:36.982Z,3.57
2017-09-13T17:46:05.257Z,3.13
2017-09-13T17:48:32.746Z,2.43
2017-09-13T17:51:00.249Z,2.77
2017-09-13T17:53:27.733Z,3.20
2017-09-13T17:55:56.008Z,2.70
2017-09-13T17:58:23.493Z,2.93
2017-09-13T18:00:50.985Z,3.53
2017-09-13T18:03:18.485Z,2.97
2017-09-13T18:05:45.974Z,3.37
2017-09-13T18:08:13.516Z,2.80
2017-09-13T18:10:41.000Z,2.33
2017-09-13T18:13:09.269Z,2.40
2017-09-13T18:15:36.757Z,2.00
2017-09-13T18:18:04.260Z,3.20
2017-09-13T18:20:32.513Z,2.70
2017-09-13T18:23:00.022Z,2.20
2017-09-13T18:25:27.504Z,3.20
2017-09-13T18:27:55.002Z,3.20
2017-09-13T18:30:22.511Z,3.27
2017-09-13T18:32:50.087Z,2.80
2017-09-13T18:35:17.565Z,2.90
2017-09-13T18:37:45.044Z,3.33
2017-09-13T18:40:12.544Z,2.13
2017-09-13T18:42:40.035Z,2.80
2017-09-13T18:45:07.532Z,3.60
2017-09-13T18:47:35.016Z,2.57
2017-09-13T18:50:02.521Z,3.20
2017-09-13T18:52:30.000Z,2.50
2017-09-13T18:54:57.508Z,2.90
2017-09-13T18:57:25.001Z,2.77
2017-09-13T18:59:52.500Z,2.90
2017-09-13T19:02:19.989Z,2.63
2017-09-13T19:04:47.489Z,2.93
2017-09-13T19:07:15.782Z,2.80
2017-09-13T19:09:43.287Z,2.27
2017-09-13T19:12:10.773Z,3.03
2017-09-13T19:14:38.260Z,2.63
2017-09-13T19:17:05.758Z,2.50
2017-09-13T19:19:33.237Z,3.07
2017-09-13T19:22:00.737Z,2.37
2017-09-13T19:24:28.261Z,2.57
2017-09-13T19:26:56.534Z,2.27
2017-09-13T19:29:24.017Z,2.40
2017-09-13T19:31:51.511Z,2.40
2017-09-13T19:34:19.759Z,3.53
2017-09-13T19:36:47.285Z,2.70
2017-09-13T19:39:14.770Z,2.40
2017-09-13T19:41:42.322Z,2.70
2017-09-13T19:44:09.872Z,2.70
2017-09-13T19:46:37.352Z,2.87
2017-09-13T19:49:04.873Z,2.93
2017-09-13T19:51:32.374Z,3.00
2017-09-13T19:54:00.646Z,2.57
2017-09-13T19:56:28.196Z,2.80
2017-09-13T19:58:55.696Z,2.80
2017-09-13T20:01:24.690Z,3.47
2017-09-13T20:03:52.218Z,2.30
2017-09-13T20:06:20.464Z,2.60
2017-09-13T20:08:47.949Z,3.03
2017-09-13T20:11:16.218Z,3.40
2017-09-13T20:13:43.738Z,3.53
2017-09-13T20:16:11.245Z,3.20
2017-09-13T20:18:38.733Z,2.93
2017-09-13T20:21:07.008Z,3.83
2017-09-13T20:23:34.493Z,5.10
2017-09-13T20:26:01.997Z,3.50
2017-09-13T20:28:29.484Z,3.83
2017-09-13T20:30:56.997Z,3.70
2017-09-13T20:33:24.484Z,3.50
2017-09-13T20:35:51.990Z,2.97
2017-09-13T20:38:19.476Z,3.70
2017-09-13T20:40:46.993Z,4.37
2017-09-13T20:43:14.489Z,4.53
2017-09-13T20:45:42.740Z,3.23
2017-09-13T20:48:11.047Z,4.07
2017-09-13T20:50:38.573Z,3.80
2017-09-13T20:53:06.077Z,3.93
2017-09-13T20:55:33.580Z,4.30
2017-09-13T20:58:01.105Z,3.70
2017-09-13T21:00:28.593Z,5.10
2017-09-13T21:02:56.096Z,3.97
2017-09-13T21:05:23.580Z,4.30
2017-09-13T21:07:51.868Z,3.80
2017-09-13T21:10:20.125Z,4.93
2017-09-13T21:12:48.384Z,4.87
2017-09-13T21:15:16.652Z,5.40
2017-09-13T21:17:44.906Z,4.37
2017-09-13T21:20:13.180Z,4.70
2017-09-13T21:22:41.433Z,5.33
2017-09-13T21:25:09.720Z,4.93
2017-09-13T21:27:37.209Z,5.27
2017-09-13T21:30:04.718Z,5.10
2017-09-13T21:32:32.208Z,4.93
2017-09-13T21:34:59.715Z,5.00
2017-09-13T21:37:27.232Z,5.00
2017-09-13T21:39:54.738Z,5.30
2017-09-13T21:42:22.225Z,5.23
2017-09-13T21:44:49.741Z,4.80
2017-09-13T21:47:17.999Z,3.87
2017-09-13T21:49:46.252Z,4.70
2017-09-13T21:52:14.529Z,5.17
2017-09-13T21:54:42.805Z,4.37
2017-09-13T21:57:10.304Z,4.60
2017-09-13T21:59:37.797Z,3.83
2017-09-13T22:02:05.305Z,3.73
2017-09-13T22:04:33.558Z,3.90
2017-09-13T22:07:01.157Z,4.73
2017-09-13T22:09:28.724Z,3.90
2017-09-13T22:11:57.001Z,3.60
2017-09-13T22:14:25.258Z,3.67
2017-09-13T22:16:53.518Z,3.50
2017-09-13T22:19:21.785Z,2.67
2017-09-13T22:21:49.281Z,3.43
2017-09-13T22:24:16.786Z,4.33
2017-09-13T22:26:44.350Z,3.70
2017-09-13T22:29:11.853Z,3.33
2017-09-13T22:31:40.111Z,3.50
2017-09-13T22:34:08.385Z,3.57
2017-09-13T22:36:35.868Z,3.17
2017-09-13T22:39:03.381Z,3.57
2017-09-13T22:41:30.873Z,3.13
2017-09-13T22:43:58.356Z,3.10
2017-09-13T22:46:25.861Z,2.90
2017-09-13T22:48:53.344Z,3.67
2017-09-13T22:51:20.855Z,3.83
2017-09-13T22:53:48.338Z,2.80
2017-09-13T22:56:15.841Z,3.60
2017-09-13T22:58:43.346Z,3.27
2017-09-13T23:01:10.845Z,2.90
2017-09-13T23:03:39.093Z,3.90
2017-09-13T23:06:06.581Z,3.60
2017-09-13T23:08:34.086Z,4.23
2017-09-13T23:11:01.577Z,3.70
2017-09-13T23:13:29.153Z,4.27
2017-09-13T23:15:56.807Z,4.07
2017-09-13T23:18:24.319Z,4.07
2017-09-13T23:20:52.582Z,3.90
2017-09-13T23:23:20.960Z,4.07
2017-09-13T23:25:49.213Z,5.03
2017-09-13T23:28:17.476Z,3.60
2017-09-13T23:30:44.972Z,3.00
2017-09-13T23:33:13.220Z,3.60
2017-09-13T23:35:40.721Z,3.70
2017-09-13T23:38:08.204Z,3.23
2017-09-13T23:40:35.704Z,3.00
2017-09-13T23:43:03.194Z,3.50
2017-09-13T23:45:30.773Z,2.80
2017-09-13T23:47:58.252Z,2.90
2017-09-13T23:50:25.753Z,2.70
2017-09-13T23:52:53.242Z,3.70
2017-09-13T23:55:20.749Z,3.17
2017-09-13T23:57:49.917Z,3.90
